createdAt,value
2024-01-15T00:00:01.146Z,22.83
2024-01-15T00:05:05.811Z,23.67
2024-01-15T00:10:07.956Z,21.40
2024-01-15T00:15:10.095Z,23.17
2024-01-15T00:20:12.463Z,27.23
2024-01-15T00:25:14.573Z,21.33
2024-01-15T00:30:17.297Z,26.27
2024-01-15T00:35:19.701Z,29.23
2024-01-15T00:40:21.497Z,28.60
2024-01-15T00:45:23.801Z,22.17
2024-01-15T00:50:26.287Z,34.93
2024-01-15T00:55:28.422Z,27.93
2024-01-15T01:00:30.697Z,28.57
2024-01-15T01:05:32.921Z,18.43
2024-01-15T01:10:35.222Z,29.83
2024-01-15T01:15:38.124Z,40.87
2024-01-15T01:20:40.202Z,34.10
2024-01-15T01:25:42.889Z,52.80
2024-01-15T01:30:44.609Z,28.23
2024-01-15T01:35:48.174Z,29.60
2024-01-15T01:40:50.294Z,33.37
2024-01-15T01:45:54.289Z,13.07
2024-01-15T01:50:57.077Z,31.90
2024-01-15T01:55:58.952Z,37.07
2024-01-15T02:01:01.365Z,41.20
2024-01-15T02:06:03.783Z,31.57
2024-01-15T02:11:06.128Z,28.23
2024-01-15T02:16:08.391Z,37.93
2024-01-15T02:21:10.535Z,34.90
2024-01-15T02:26:12.935Z,21.35
2024-01-15T02:31:15.359Z,29.13
2024-01-15T02:36:18.514Z,22.83
2024-01-15T02:41:21.773Z,36.10
2024-01-15T02:46:23.564Z,37.87
2024-01-15T02:51:25.768Z,33.73
2024-01-15T02:56:28.206Z,26.63
2024-01-15T03:01:30.419Z,20.57
2024-01-15T03:06:32.659Z,27.97
2024-01-15T03:11:34.753Z,20.20
2024-01-15T03:16:36.859Z,23.97
2024-01-15T03:21:39.295Z,23.77
2024-01-15T03:26:42.339Z,11.82
2024-01-15T03:31:45.186Z,32.55
2024-01-15T03:36:54.845Z,21.77
2024-01-15T03:41:56.719Z,19.40
2024-01-15T03:46:59.193Z,24.07
2024-01-15T03:52:04.958Z,31.27
2024-01-15T03:57:08.319Z,44.55
2024-01-15T04:02:10.625Z,21.77
2024-01-15T04:07:13.444Z,35.47
2024-01-15T04:12:18.150Z,20.77
2024-01-15T04:17:24.371Z,35.13
2024-01-15T04:22:27.410Z,32.63
2024-01-15T04:27:29.686Z,38.55
2024-01-15T04:32:33.130Z,29.85
2024-01-15T04:37:35.545Z,28.05
2024-01-15T04:42:37.767Z,29.05
2024-01-15T04:47:43.642Z,40.15
2024-01-15T04:53:13.277Z,32.50
2024-01-15T04:58:15.712Z,31.83
2024-01-15T05:03:18.981Z,32.80
2024-01-15T05:08:22.526Z,31.83
2024-01-15T05:13:24.701Z,33.72
2024-01-15T05:18:29.126Z,36.20
2024-01-15T05:23:33.676Z,31.63
2024-01-15T05:28:36.744Z,28.00
2024-01-15T05:33:41.274Z,26.50
2024-01-15T05:38:44.193Z,30.93
2024-01-15T05:43:52.585Z,41.60
2024-01-15T05:48:54.854Z,38.65
2024-01-15T05:53:57.448Z,22.73
2024-01-15T05:59:00.113Z,20.35
2024-01-15T06:04:02.604Z,40.28
2024-01-15T06:09:04.968Z,37.30
2024-01-15T06:14:07.208Z,31.63
2024-01-15T06:19:09.698Z,20.05
2024-01-15T06:24:16.977Z,35.25
2024-01-15T06:29:26.297Z,28.33
2024-01-15T06:34:28.625Z,43.28
2024-01-15T06:39:33.410Z,21.52
2024-01-15T06:44:35.831Z,24.10
2024-01-15T06:49:38.463Z,32.70
2024-01-15T06:54:45.250Z,39.85
2024-01-15T06:59:57.618Z,32.40
2024-01-15T07:05:00.409Z,18.25
2024-01-15T07:10:02.744Z,35.17
2024-01-15T07:15:06.781Z,35.65
2024-01-15T07:20:13.701Z,42.03
2024-01-15T07:25:16.277Z,28.00
2024-01-15T07:30:27.502Z,41.70
2024-01-15T07:35:29.803Z,22.58
2024-01-15T07:40:32.221Z,32.67
2024-01-15T07:45:34.506Z,31.33
2024-01-15T07:50:36.861Z,38.53
2024-01-15T07:55:40.702Z,31.33
2024-01-15T08:00:42.865Z,35.42
2024-01-15T08:05:45.358Z,32.45
2024-01-15T08:10:47.549Z,38.25
2024-01-15T08:15:53.153Z,33.97
2024-01-15T08:20:58.930Z,24.73
2024-01-15T08:26:01.475Z,24.27
2024-01-15T08:31:03.749Z,35.78
2024-01-15T08:36:06.129Z,28.95
2024-01-15T08:41:08.394Z,27.52
2024-01-15T08:46:11.530Z,28.83
2024-01-15T08:51:14.071Z,27.75
2024-01-15T08:56:20.497Z,26.02
2024-01-15T09:01:27.796Z,35.55
2024-01-15T09:06:36.695Z,31.45
2024-01-15T09:11:41.884Z,26.47
2024-01-15T09:16:44.173Z,18.38
2024-01-15T09:21:46.788Z,16.77
2024-01-15T09:26:49.489Z,22.05
2024-01-15T09:31:59.025Z,30.00
2024-01-15T09:37:03.790Z,19.80
2024-01-15T09:42:06.879Z,23.63
2024-01-15T09:47:09.444Z,20.48
2024-01-15T09:52:12.449Z,23.42
2024-01-15T09:57:15.360Z,23.30
2024-01-15T10:02:21.105Z,27.65
2024-01-15T10:07:26.419Z,27.40
2024-01-15T10:12:29.656Z,13.68
2024-01-15T10:17:31.733Z,18.17
2024-01-15T10:22:34.960Z,23.10
2024-01-15T10:27:37.251Z,23.42
2024-01-15T10:32:40.831Z,17.27
2024-01-15T10:37:43.428Z,20.58
2024-01-15T10:42:46.161Z,23.83
2024-01-15T10:47:49.611Z,14.93
2024-01-15T10:52:55.830Z,16.83
2024-01-15T10:58:03.884Z,16.60
2024-01-15T11:03:09.472Z,22.73
2024-01-15T11:08:12.114Z,15.88
2024-01-15T11:13:14.475Z,15.27
2024-01-15T11:18:21.291Z,11.18
2024-01-15T11:23:30.570Z,18.15
2024-01-15T11:28:34.692Z,20.90
2024-01-15T11:33:37.419Z,15.82
2024-01-15T11:38:40.129Z,17.50
2024-01-15T11:43:42.494Z,18.88
2024-01-15T11:48:45.091Z,15.45
2024-01-15T11:53:47.037Z,21.67
2024-01-15T11:58:48.925Z,21.70
2024-01-15T12:03:52.821Z,13.95
2024-01-15T12:08:55.752Z,15.15
2024-01-15T12:14:00.498Z,11.52
2024-01-15T12:19:03.337Z,14.90
2024-01-15T12:24:18.060Z,15.43
2024-01-15T12:29:20.548Z,11.73
2024-01-15T12:34:23.364Z,19.35
2024-01-15T12:39:30.369Z,9.93
2024-01-15T12:44:32.937Z,14.02
2024-01-15T12:49:34.802Z,12.20
2024-01-15T12:54:37.814Z,10.23
2024-01-15T12:59:40.489Z,9.43
2024-01-15T13:04:43.422Z,9.73
2024-01-15T13:09:48.181Z,8.25
2024-01-15T13:14:50.651Z,4.35
2024-01-15T13:19:53.036Z,5.82
2024-01-15T13:24:57.723Z,3.70
2024-01-15T13:30:00.529Z,5.47
2024-01-15T13:35:05.546Z,4.65
2024-01-15T13:40:10.475Z,4.45
2024-01-15T13:45:12.845Z,6.47
2024-01-15T13:50:15.220Z,2.85
2024-01-15T13:55:17.643Z,5.38
2024-01-15T14:00:20.142Z,5.80
2024-01-15T14:05:24.026Z,4.32
2024-01-15T14:10:28.287Z,3.80
2024-01-15T14:15:39.945Z,2.47
2024-01-15T14:20:42.579Z,3.45
2024-01-15T14:25:44.995Z,4.03
2024-01-15T14:30:47.315Z,5.65
2024-01-15T14:35:50.822Z,3.72
2024-01-15T14:40:57.981Z,6.63
2024-01-15T14:46:04.170Z,4.20
2024-01-15T14:51:08.450Z,3.33
2024-01-15T14:56:16.742Z,7.20
2024-01-15T15:01:20.756Z,1.95
2024-01-15T15:06:23.592Z,4.10
2024-01-15T15:11:32.382Z,3.58
2024-01-15T15:16:35.373Z,2.75
2024-01-15T15:21:37.825Z,1.75
2024-01-15T15:26:39.945Z,3.67
2024-01-15T15:31:44.504Z,7.15
2024-01-15T15:36:46.800Z,4.88
2024-01-15T15:41:49.263Z,7.53
2024-01-15T15:46:52.462Z,5.85
2024-01-15T15:51:55.440Z,3.03
2024-01-15T15:57:07.362Z,2.97
2024-01-15T16:02:09.695Z,3.17
2024-01-15T16:07:14.721Z,4.72
2024-01-15T16:12:25.349Z,7.28
2024-01-15T16:23:15.907Z,4.50
2024-01-15T16:23:44.282Z,7.78
2024-01-15T16:28:14.985Z,3.90
2024-01-15T16:33:19.314Z,2.58
2024-01-15T16:38:21.630Z,4.88
2024-01-15T16:43:24.134Z,2.20
2024-01-15T16:48:27.350Z,3.50
2024-01-15T16:53:29.864Z,3.90
2024-01-15T17:03:57.637Z,5.85
2024-01-15T17:09:03.696Z,2.80
2024-01-15T17:14:09.733Z,2.03
2024-01-15T17:19:11.729Z,10.35
2024-01-15T17:24:20.798Z,3.20
2024-01-15T17:29:24.203Z,3.53
2024-01-15T17:34:32.470Z,5.85
2024-01-15T17:39:41.922Z,2.65
2024-01-15T17:44:45.881Z,3.80
2024-01-15T17:49:56.984Z,2.20
2024-01-15T17:54:58.942Z,3.17
2024-01-15T18:00:03.529Z,2.47
2024-01-15T18:05:10.639Z,6.75
2024-01-15T18:10:13.062Z,4.55
2024-01-15T18:15:15.575Z,3.63
2024-01-15T18:20:18.201Z,6.35
2024-01-15T18:25:23.954Z,4.72
2024-01-15T18:30:26.659Z,5.15
2024-01-15T18:35:33.086Z,3.92
2024-01-15T18:40:46.034Z,5.32
2024-01-15T18:45:58.100Z,5.68
2024-01-15T18:51:03.139Z,10.75
2024-01-15T18:56:15.003Z,9.98
2024-01-15T19:01:24.273Z,7.50
2024-01-15T19:06:26.700Z,11.20
2024-01-15T19:11:32.488Z,6.90
2024-01-15T19:16:40.737Z,7.45
2024-01-15T19:21:51.181Z,11.60
2024-01-15T19:26:54.384Z,8.18
2024-01-15T19:32:03.009Z,8.23
2024-01-15T19:37:09.856Z,4.85
2024-01-15T19:42:13.119Z,7.60
2024-01-15T19:47:15.913Z,9.55
2024-01-15T19:52:18.891Z,8.15
2024-01-15T19:57:48.005Z,7.68
2024-01-15T20:02:52.797Z,7.63
2024-01-15T20:08:00.752Z,8.63
2024-01-15T20:13:15.596Z,11.32
2024-01-15T20:18:27.651Z,7.25
2024-01-15T20:28:52.895Z,7.57
2024-01-15T20:33:57.700Z,9.27
2024-01-15T20:39:04.881Z,9.85
2024-01-15T20:44:08.931Z,9.50
2024-01-15T20:49:11.967Z,10.32
2024-01-15T20:54:14.090Z,8.68
2024-01-15T20:59:16.586Z,7.80
2024-01-15T21:04:32.593Z,7.00
2024-01-15T21:09:35.059Z,10.43
2024-01-15T21:14:42.177Z,8.52
2024-01-15T21:19:44.800Z,7.57
2024-01-15T21:24:50.585Z,8.93
2024-01-15T21:29:53.001Z,9.85
2024-01-15T21:34:55.280Z,8.68
2024-01-15T21:40:03.823Z,13.07
2024-01-15T21:45:05.649Z,9.70
2024-01-15T21:55:33.864Z,10.00
2024-01-15T22:00:43.989Z,12.80
2024-01-15T22:05:46.461Z,11.50
2024-01-15T22:10:49.033Z,9.23
2024-01-15T22:15:51.640Z,7.57
2024-01-15T22:20:54.721Z,9.93
2024-01-15T22:25:57.299Z,11.82
2024-01-15T22:30:59.674Z,11.15
2024-01-15T22:36:01.847Z,8.75
2024-01-15T22:41:04.548Z,5.85
2024-01-15T22:46:07.388Z,6.45
2024-01-15T22:51:13.618Z,10.95
2024-01-15T22:56:18.227Z,4.68
2024-01-15T23:01:21.127Z,8.93
2024-01-15T23:06:24.784Z,6.25
2024-01-15T23:11:34.538Z,10.18
2024-01-15T23:16:38.046Z,5.68
2024-01-15T23:21:41.473Z,7.22
2024-01-15T23:26:43.981Z,8.48
2024-01-15T23:31:49.519Z,12.52
2024-01-15T23:36:52.139Z,9.57
2024-01-15T23:41:56.411Z,8.68
2024-01-15T23:47:00.075Z,15.95
2024-01-15T23:52:02.642Z,8.10
2024-01-15T23:57:05.588Z,10.68
